Time;durP1;ratioP1;P1;durP2;ratioP2;P2;SDS_P1;SDS_P2;PMS_P1;PMS_P2;Temp;Humidity;BMP_temperature;BMP_pressure;BME280_temperature;BME280_humidity;BME280_pressure;Samples;Min_cycle;Max_cycle;Signal;HPM_P1;HPM_P2
2021/04/28 00:00:25;;;;;;;6.07;3.63;;;;;;;;;;5038555;28;20116;-83
2021/04/28 00:02:52;;;;;;;8.05;4.03;;;;;;;;;;5043869;28;20031;-83
2021/04/28 00:05:18;;;;;;;7.57;4.05;;;;;;;;;;5040413;28;20104;-83
2021/04/28 00:07:44;;;;;;;6.70;3.78;;;;;;;;;;5067593;28;20053;-83
2021/04/28 00:10:11;;;;;;;6.70;3.90;;;;;;;;;;5054348;28;20039;-83
2021/04/28 00:12:37;;;;;;;6.53;3.83;;;;;;;;;;5039312;28;20045;-83
2021/04/28 00:15:12;;;;;;;7.35;4.57;;;;;;;;;;5056423;28;20013;-83
2021/04/28 00:17:38;;;;;;;6.53;4.05;;;;;;;;;;5073975;28;20052;-83
2021/04/28 00:20:06;;;;;;;6.80;3.72;;;;;;;;;;5057319;28;20021;-83
2021/04/28 00:22:32;;;;;;;10.20;4.70;;;;;;;;;;5074313;28;20020;-83
2021/04/28 00:24:58;;;;;;;9.27;4.28;;;;;;;;;;5056578;28;20021;-83
2021/04/28 00:27:24;;;;;;;8.02;4.30;;;;;;;;;;5053628;28;20017;-83
2021/04/28 00:29:50;;;;;;;7.78;4.63;;;;;;;;;;5052803;28;20039;-83
2021/04/28 00:32:16;;;;;;;11.23;4.47;;;;;;;;;;5037072;28;20025;-83
2021/04/28 00:34:42;;;;;;;7.22;4.55;;;;;;;;;;5047092;28;20411;-83
2021/04/28 00:37:08;;;;;;;7.55;4.55;;;;;;;;;;5074082;28;20040;-83
2021/04/28 00:39:34;;;;;;;9.27;4.63;;;;;;;;;;5055795;28;20388;-83
2021/04/28 00:42:00;;;;;;;8.93;4.38;;;;;;;;;;5056250;28;20028;-83
2021/04/28 00:44:26;;;;;;;10.73;4.70;;;;;;;;;;5056436;28;20021;-83
2021/04/28 00:46:52;;;;;;;6.47;3.97;;;;;;;;;;5044594;28;20017;-83
2021/04/28 00:49:18;;;;;;;8.60;4.00;;;;;;;;;;5069692;28;20115;-83
2021/04/28 00:51:44;;;;;;;9.20;4.30;;;;;;;;;;5073016;28;20482;-83
2021/04/28 00:54:10;;;;;;;6.75;4.10;;;;;;;;;;5072890;28;20086;-83
2021/04/28 00:56:36;;;;;;;6.70;4.00;;;;;;;;;;5053678;28;20037;-83
2021/04/28 00:59:02;;;;;;;8.75;4.10;;;;;;;;;;5038754;28;20392;-83
2021/04/28 01:01:28;;;;;;;8.25;4.38;;;;;;;;;;5065589;28;20052;-83
2021/04/28 01:03:54;;;;;;;10.15;4.78;;;;;;;;;;5054314;28;20165;-83
2021/04/28 01:06:21;;;;;;;8.77;4.75;;;;;;;;;;5052489;28;20017;-83
2021/04/28 01:08:47;;;;;;;6.95;4.30;;;;;;;;;;5050330;28;20049;-83
2021/04/28 01:11:13;;;;;;;7.90;4.32;;;;;;;;;;5074174;28;20020;-83
2021/04/28 01:13:39;;;;;;;9.85;4.43;;;;;;;;;;5071544;28;20162;-83
2021/04/28 01:16:05;;;;;;;7.88;4.40;;;;;;;;;;5055402;28;20124;-83
2021/04/28 01:18:31;;;;;;;7.30;4.70;;;;;;;;;;5055981;28;20119;-83
2021/04/28 01:20:57;;;;;;;8.50;4.75;;;;;;;;;;5073832;28;20496;-83
2021/04/28 01:23:23;;;;;;;9.48;4.70;;;;;;;;;;5056108;28;20024;-83
2021/04/28 01:25:50;;;;;;;9.98;4.65;;;;;;;;;;5041997;28;20056;-83
2021/04/28 01:28:23;;;;;;;11.68;5.15;;;;;;;;;;5056247;28;20039;-83
2021/04/28 01:30:55;;;;;;;7.38;4.82;;;;;;;;;;5055726;28;20115;-83
2021/04/28 01:33:29;;;;;;;9.02;5.25;;;;;;;;;;5052102;28;20064;-83
2021/04/28 01:35:56;;;;;;;7.43;4.85;;;;;;;;;;5055465;28;20128;-83
2021/04/28 01:38:23;;;;;;;11.90;4.78;;;;;;;;;;5066446;28;20476;-83
2021/04/28 01:40:50;;;;;;;11.43;5.35;;;;;;;;;;5047517;28;20034;-83
2021/04/28 01:43:16;;;;;;;7.95;4.70;;;;;;;;;;5044472;28;20440;-83
2021/04/28 01:45:43;;;;;;;12.55;5.18;;;;;;;;;;5035929;28;20029;-83
2021/04/28 01:48:10;;;;;;;8.05;4.80;;;;;;;;;;5047149;28;20025;-83
2021/04/28 01:50:36;;;;;;;9.70;5.05;;;;;;;;;;5072202;28;20515;-83
2021/04/28 01:53:02;;;;;;;8.27;5.13;;;;;;;;;;5053028;28;20116;-83
2021/04/28 01:55:28;;;;;;;13.10;4.95;;;;;;;;;;5065512;28;20056;-83
2021/04/28 01:57:55;;;;;;;9.63;5.30;;;;;;;;;;5065710;28;20103;-83
2021/04/28 02:00:21;;;;;;;9.27;5.07;;;;;;;;;;5064629;28;20028;-83
2021/04/28 02:02:48;;;;;;;9.50;5.47;;;;;;;;;;5055060;28;20031;-83
2021/04/28 02:05:15;;;;;;;8.65;5.47;;;;;;;;;;5053700;28;20048;-83
2021/04/28 02:07:42;;;;;;;9.88;5.75;;;;;;;;;;5042647;28;20136;-83
2021/04/28 02:10:08;;;;;;;7.57;4.53;;;;;;;;;;5063870;28;20021;-83
2021/04/28 02:12:34;;;;;;;9.93;5.10;;;;;;;;;;5039379;28;20059;-83
2021/04/28 02:15:02;;;;;;;13.43;5.35;;;;;;;;;;5073334;28;20016;-82
2021/04/28 02:17:30;;;;;;;9.98;5.50;;;;;;;;;;5055544;28;20044;-83
2021/04/28 02:19:56;;;;;;;7.90;5.25;;;;;;;;;;5072055;28;20090;-83
2021/04/28 02:22:25;;;;;;;11.55;5.32;;;;;;;;;;5052803;28;20028;-83
2021/04/28 02:24:51;;;;;;;13.05;5.15;;;;;;;;;;5046658;28;20020;-83
2021/04/28 02:27:17;;;;;;;10.35;5.20;;;;;;;;;;5051300;28;20067;-83
2021/04/28 02:29:43;;;;;;;10.77;6.28;;;;;;;;;;5073235;28;20024;-83
2021/04/28 02:32:09;;;;;;;12.15;5.03;;;;;;;;;;5055712;28;20036;-83
2021/04/28 02:34:36;;;;;;;14.65;5.72;;;;;;;;;;5069286;28;20464;-83
2021/04/28 02:37:02;;;;;;;10.40;6.07;;;;;;;;;;5072526;28;20025;-83
2021/04/28 02:39:46;;;;;;;10.18;5.40;;;;;;;;;;5053472;28;20137;-83
2021/04/28 02:42:12;;;;;;;11.30;5.60;;;;;;;;;;5052482;28;20033;-83
2021/04/28 02:44:39;;;;;;;11.25;6.00;;;;;;;;;;5058747;28;20039;-83
2021/04/28 02:47:06;;;;;;;13.27;5.88;;;;;;;;;;5058218;28;20177;-83
2021/04/28 02:49:32;;;;;;;13.40;5.57;;;;;;;;;;5064852;28;20103;-83
2021/04/28 02:51:59;;;;;;;11.40;6.05;;;;;;;;;;5057082;28;20365;-83
2021/04/28 02:54:25;;;;;;;13.65;6.80;;;;;;;;;;5065588;28;20060;-83
2021/04/28 02:56:52;;;;;;;14.52;6.07;;;;;;;;;;5072657;28;20097;-83
2021/04/28 02:59:22;;;;;;;14.43;7.10;;;;;;;;;;5038453;28;20488;-83
2021/04/28 03:01:48;;;;;;;12.55;6.72;;;;;;;;;;5068380;28;20055;-83
2021/04/28 03:04:15;;;;;;;12.55;5.85;;;;;;;;;;5058704;28;20074;-83
2021/04/28 03:06:41;;;;;;;13.73;6.45;;;;;;;;;;5069873;28;20059;-83
2021/04/28 03:09:07;;;;;;;11.43;6.20;;;;;;;;;;5070507;28;20056;-83
2021/04/28 03:11:34;;;;;;;13.45;6.78;;;;;;;;;;5046128;28;20029;-83
2021/04/28 03:14:00;;;;;;;11.57;6.50;;;;;;;;;;5058589;28;20131;-83
2021/04/28 03:16:26;;;;;;;16.52;7.22;;;;;;;;;;5076362;28;20154;-83
2021/04/28 03:18:52;;;;;;;11.90;5.88;;;;;;;;;;5076444;28;20119;-83
2021/04/28 03:21:20;;;;;;;12.30;6.50;;;;;;;;;;5067731;28;20029;-83
2021/04/28 03:23:46;;;;;;;10.27;6.03;;;;;;;;;;5075889;28;20468;-83
2021/04/28 03:26:13;;;;;;;11.93;6.53;;;;;;;;;;5052285;28;20116;-83
2021/04/28 03:28:39;;;;;;;11.65;6.25;;;;;;;;;;5054531;28;20043;-83
2021/04/28 03:31:05;;;;;;;14.68;6.65;;;;;;;;;;5055845;28;20415;-83
2021/04/28 03:33:31;;;;;;;11.40;6.70;;;;;;;;;;5042319;28;20033;-83
2021/04/28 03:35:57;;;;;;;15.32;6.88;;;;;;;;;;5041696;28;20035;-83
2021/04/28 03:38:23;;;;;;;13.57;7.32;;;;;;;;;;5043263;28;20845;-82
2021/04/28 03:40:49;;;;;;;15.50;7.40;;;;;;;;;;5054901;28;20181;-82
2021/04/28 03:43:16;;;;;;;12.85;6.78;;;;;;;;;;5044622;28;20516;-82
2021/04/28 03:45:42;;;;;;;13.25;6.20;;;;;;;;;;5072092;28;20104;-83
2021/04/28 03:48:08;;;;;;;12.02;6.43;;;;;;;;;;5057970;28;20032;-82
2021/04/28 03:50:34;;;;;;;13.02;6.95;;;;;;;;;;5054801;28;20051;-82
2021/04/28 03:53:00;;;;;;;15.65;7.50;;;;;;;;;;5058169;28;20102;-83
2021/04/28 03:55:26;;;;;;;13.82;6.88;;;;;;;;;;5060781;28;20037;-82
2021/04/28 03:57:52;;;;;;;11.68;6.55;;;;;;;;;;5051997;28;20116;-83
2021/04/28 04:00:18;;;;;;;13.45;7.18;;;;;;;;;;5057487;28;20021;-82
2021/04/28 04:02:44;;;;;;;19.95;8.02;;;;;;;;;;5075580;28;20103;-83
2021/04/28 04:05:11;;;;;;;15.55;7.32;;;;;;;;;;5055079;28;20028;-82
2021/04/28 04:07:37;;;;;;;15.00;7.38;;;;;;;;;;5054257;28;20056;-82
2021/04/28 04:10:03;;;;;;;13.07;7.55;;;;;;;;;;5071138;28;20217;-83
2021/04/28 04:12:29;;;;;;;16.98;7.60;;;;;;;;;;5056513;28;20056;-83
2021/04/28 04:14:55;;;;;;;16.30;8.25;;;;;;;;;;5057371;28;20052;-83
2021/04/28 04:17:21;;;;;;;15.88;8.23;;;;;;;;;;5052600;28;20025;-83
2021/04/28 04:19:47;;;;;;;14.70;7.35;;;;;;;;;;5055519;28;20067;-82
2021/04/28 04:22:14;;;;;;;12.88;6.70;;;;;;;;;;5062921;28;20032;-81
2021/04/28 04:24:40;;;;;;;17.20;7.20;;;;;;;;;;5068259;28;20028;-81
2021/04/28 04:27:07;;;;;;;14.55;7.30;;;;;;;;;;5056722;28;20029;-82
2021/04/28 04:29:33;;;;;;;12.68;6.75;;;;;;;;;;5041873;28;20029;-83
2021/04/28 04:31:59;;;;;;;13.07;7.78;;;;;;;;;;5037273;28;20032;-81
2021/04/28 04:34:25;;;;;;;13.35;6.95;;;;;;;;;;5048776;28;20028;-83
2021/04/28 04:36:51;;;;;;;18.65;8.15;;;;;;;;;;5047812;28;20543;-83
2021/04/28 04:39:17;;;;;;;13.23;7.10;;;;;;;;;;5046957;28;20036;-84
2021/04/28 04:41:43;;;;;;;16.75;8.20;;;;;;;;;;5053944;28;20021;-83
2021/04/28 04:44:09;;;;;;;16.05;7.95;;;;;;;;;;5044871;28;20480;-83
2021/04/28 04:46:35;;;;;;;17.38;7.90;;;;;;;;;;5074729;28;20024;-84
2021/04/28 04:49:01;;;;;;;18.90;7.55;;;;;;;;;;5046737;28;20037;-84
2021/04/28 04:51:27;;;;;;;15.95;7.88;;;;;;;;;;5046166;28;20404;-82
2021/04/28 04:53:53;;;;;;;15.55;7.85;;;;;;;;;;5047188;28;20025;-83
2021/04/28 04:56:19;;;;;;;16.33;7.50;;;;;;;;;;5074899;28;20492;-84
2021/04/28 04:58:45;;;;;;;17.83;8.70;;;;;;;;;;5056081;28;20039;-82
2021/04/28 05:01:11;;;;;;;19.15;8.30;;;;;;;;;;5042200;28;20114;-81
2021/04/28 05:03:37;;;;;;;16.90;7.60;;;;;;;;;;5054423;28;20060;-83
2021/04/28 05:06:03;;;;;;;15.38;7.75;;;;;;;;;;5054607;28;20083;-82
2021/04/28 05:08:28;;;;;;;15.88;7.78;;;;;;;;;;5050414;28;20150;-83
2021/04/28 05:10:55;;;;;;;17.00;8.00;;;;;;;;;;5047215;28;20044;-82
2021/04/28 05:13:21;;;;;;;15.95;7.78;;;;;;;;;;5072314;28;20024;-83
2021/04/28 05:15:47;;;;;;;19.58;8.55;;;;;;;;;;5057069;28;20020;-82
2021/04/28 05:18:14;;;;;;;16.83;8.25;;;;;;;;;;5053669;28;20381;-81
2021/04/28 05:20:39;;;;;;;15.07;8.27;;;;;;;;;;5069769;28;20512;-83
2021/04/28 05:23:06;;;;;;;16.63;8.30;;;;;;;;;;5049221;28;20029;-82
2021/04/28 05:25:32;;;;;;;20.83;8.98;;;;;;;;;;5068914;28;20484;-82
2021/04/28 05:27:58;;;;;;;25.08;7.75;;;;;;;;;;5056769;28;20042;-83
2021/04/28 05:30:24;;;;;;;21.35;8.75;;;;;;;;;;5056696;28;20029;-83
2021/04/28 05:32:50;;;;;;;16.25;8.73;;;;;;;;;;5048204;28;20021;-83
2021/04/28 05:35:17;;;;;;;16.98;8.80;;;;;;;;;;5070765;28;20043;-84
2021/04/28 05:37:43;;;;;;;15.00;7.88;;;;;;;;;;5053451;28;20051;-84
2021/04/28 05:40:10;;;;;;;15.02;8.13;;;;;;;;;;5040115;28;20025;-84
2021/04/28 05:42:36;;;;;;;15.80;7.72;;;;;;;;;;5057699;28;20090;-84
2021/04/28 05:45:03;;;;;;;16.63;8.35;;;;;;;;;;5051238;28;20056;-84
2021/04/28 05:47:29;;;;;;;19.05;7.75;;;;;;;;;;5055319;28;20052;-84
2021/04/28 05:49:55;;;;;;;19.13;8.77;;;;;;;;;;5039763;28;20040;-84
2021/04/28 05:52:21;;;;;;;20.02;8.38;;;;;;;;;;5059191;28;20029;-84
2021/04/28 05:54:48;;;;;;;21.35;9.35;;;;;;;;;;5037898;28;20476;-84
2021/04/28 05:57:16;;;;;;;18.50;8.48;;;;;;;;;;5050161;28;20122;-84
2021/04/28 05:59:42;;;;;;;17.25;8.85;;;;;;;;;;5049730;28;20039;-84
2021/04/28 06:02:08;;;;;;;17.27;8.82;;;;;;;;;;5074143;28;20551;-83
2021/04/28 06:04:33;;;;;;;22.42;8.93;;;;;;;;;;5057885;28;20032;-83
2021/04/28 06:06:59;;;;;;;16.65;9.00;;;;;;;;;;5047760;28;20032;-82
2021/04/28 06:09:25;;;;;;;17.98;9.82;;;;;;;;;;5064167;28;20028;-83
2021/04/28 06:11:51;;;;;;;16.67;8.65;;;;;;;;;;5051541;28;20051;-83
2021/04/28 06:14:17;;;;;;;19.58;9.60;;;;;;;;;;5072736;28;20021;-84
2021/04/28 06:16:44;;;;;;;18.40;9.25;;;;;;;;;;5052720;28;20037;-83
2021/04/28 06:19:10;;;;;;;22.38;10.02;;;;;;;;;;5072876;28;20039;-82
2021/04/28 06:21:37;;;;;;;17.13;9.23;;;;;;;;;;5045894;28;20050;-83
2021/04/28 06:24:04;;;;;;;20.17;9.65;;;;;;;;;;5058567;28;20017;-83
2021/04/28 06:26:30;;;;;;;16.90;8.52;;;;;;;;;;5059129;28;20044;-84
2021/04/28 06:28:56;;;;;;;17.35;9.05;;;;;;;;;;5059660;28;20028;-83
2021/04/28 06:31:22;;;;;;;21.38;9.32;;;;;;;;;;5055287;28;20028;-83
2021/04/28 06:33:48;;;;;;;18.40;8.70;;;;;;;;;;5055611;28;20028;-83
2021/04/28 06:36:14;;;;;;;18.23;9.00;;;;;;;;;;5061291;28;20064;-85
2021/04/28 06:38:40;;;;;;;18.13;9.68;;;;;;;;;;5057244;28;20511;-85
2021/04/28 06:41:06;;;;;;;17.20;8.43;;;;;;;;;;5056751;28;20534;-85
2021/04/28 06:43:32;;;;;;;22.48;10.07;;;;;;;;;;5073649;28;20025;-85
2021/04/28 06:45:58;;;;;;;16.48;8.40;;;;;;;;;;5050227;28;20096;-83
2021/04/28 06:48:24;;;;;;;21.60;9.15;;;;;;;;;;5072061;28;20507;-83
2021/04/28 06:50:51;;;;;;;19.08;9.23;;;;;;;;;;5050955;28;20119;-85
2021/04/28 06:53:17;;;;;;;16.60;8.52;;;;;;;;;;5057792;28;20021;-84
2021/04/28 06:55:43;;;;;;;17.80;9.02;;;;;;;;;;5044139;28;20115;-85
2021/04/28 06:58:09;;;;;;;16.80;8.82;;;;;;;;;;5057637;28;20032;-85
2021/04/28 07:00:36;;;;;;;18.77;8.85;;;;;;;;;;5059010;28;20025;-85
2021/04/28 07:03:02;;;;;;;21.88;9.38;;;;;;;;;;5053602;28;20107;-85
2021/04/28 07:05:28;;;;;;;20.98;9.50;;;;;;;;;;5077574;28;20016;-85
2021/04/28 07:07:54;;;;;;;21.70;9.60;;;;;;;;;;5059108;28;20051;-84
2021/04/28 07:10:20;;;;;;;23.60;8.85;;;;;;;;;;5076987;28;20024;-85
2021/04/28 07:12:46;;;;;;;18.95;9.02;;;;;;;;;;5060137;28;20479;-85
2021/04/28 07:15:12;;;;;;;23.00;9.43;;;;;;;;;;5077850;28;20071;-85
2021/04/28 07:17:39;;;;;;;15.65;8.02;;;;;;;;;;5059390;28;20102;-85
2021/04/28 07:20:06;;;;;;;17.33;9.35;;;;;;;;;;5060003;28;20027;-85
2021/04/28 07:22:32;;;;;;;16.48;8.52;;;;;;;;;;5070611;28;20502;-85
2021/04/28 07:24:58;;;;;;;18.42;8.70;;;;;;;;;;5052954;28;20476;-85
2021/04/28 07:27:24;;;;;;;21.63;8.90;;;;;;;;;;5058580;28;20488;-85
2021/04/28 07:29:50;;;;;;;15.73;8.68;;;;;;;;;;5054295;28;20108;-85
2021/04/28 07:32:17;;;;;;;16.63;8.57;;;;;;;;;;5077282;28;20064;-85
2021/04/28 07:34:43;;;;;;;16.48;8.32;;;;;;;;;;5054330;28;20035;-83
2021/04/28 07:37:09;;;;;;;19.30;8.88;;;;;;;;;;5046847;28;20120;-83
2021/04/28 07:39:36;;;;;;;16.98;8.57;;;;;;;;;;5075445;28;20464;-83
2021/04/28 07:42:02;;;;;;;17.50;8.98;;;;;;;;;;5056481;28;20484;-83
2021/04/28 07:44:30;;;;;;;18.33;8.77;;;;;;;;;;5057765;28;20468;-83
2021/04/28 07:46:57;;;;;;;19.95;9.35;;;;;;;;;;5075266;28;20460;-84
2021/04/28 07:49:23;;;;;;;18.30;8.38;;;;;;;;;;5057507;28;20024;-83
2021/04/28 07:51:49;;;;;;;18.20;8.07;;;;;;;;;;5057108;28;20031;-83
2021/04/28 07:54:15;;;;;;;19.75;8.90;;;;;;;;;;5048939;28;20028;-83
2021/04/28 07:56:41;;;;;;;16.60;8.60;;;;;;;;;;5055996;28;20036;-84
2021/04/28 07:59:07;;;;;;;17.42;8.43;;;;;;;;;;5044794;28;20545;-84
2021/04/28 08:01:33;;;;;;;19.00;8.60;;;;;;;;;;5057279;28;20016;-84
2021/04/28 08:03:59;;;;;;;20.85;8.73;;;;;;;;;;5072932;28;20468;-84
2021/04/28 08:06:26;;;;;;;13.52;7.68;;;;;;;;;;5045484;28;20025;-84
2021/04/28 08:08:52;;;;;;;20.45;8.95;;;;;;;;;;5040101;28;20408;-83
2021/04/28 08:11:18;;;;;;;23.52;8.70;;;;;;;;;;5056745;28;20113;-84
2021/04/28 08:13:46;;;;;;;19.27;9.07;;;;;;;;;;5055900;28;20486;-84
2021/04/28 08:16:13;;;;;;;19.00;8.70;;;;;;;;;;5048636;28;20029;-84
2021/04/28 08:18:39;;;;;;;19.75;9.30;;;;;;;;;;5044272;28;20025;-84
2021/04/28 08:21:05;;;;;;;21.25;8.38;;;;;;;;;;5056479;28;20017;-84
2021/04/28 08:23:31;;;;;;;17.52;8.88;;;;;;;;;;5057314;28;20407;-84
2021/04/28 08:25:58;;;;;;;18.70;9.18;;;;;;;;;;5049274;28;20027;-84
2021/04/28 08:28:24;;;;;;;19.98;9.27;;;;;;;;;;5048624;28;20020;-84
2021/04/28 08:30:50;;;;;;;18.92;9.00;;;;;;;;;;5047635;28;20037;-84
2021/04/28 08:33:16;;;;;;;23.02;9.63;;;;;;;;;;5057092;28;20055;-84
2021/04/28 08:35:42;;;;;;;18.40;8.80;;;;;;;;;;5044154;28;20032;-84
2021/04/28 08:38:09;;;;;;;18.48;9.40;;;;;;;;;;5049547;28;20039;-84
2021/04/28 08:40:35;;;;;;;17.05;8.80;;;;;;;;;;5047951;28;20358;-83
2021/04/28 08:43:01;;;;;;;15.88;8.48;;;;;;;;;;5065153;28;20013;-84
2021/04/28 08:45:27;;;;;;;16.42;9.30;;;;;;;;;;5048889;28;20376;-84
2021/04/28 08:47:53;;;;;;;15.88;8.55;;;;;;;;;;5055361;28;20071;-84
2021/04/28 08:50:19;;;;;;;13.32;7.82;;;;;;;;;;5045020;28;20041;-84
2021/04/28 08:52:45;;;;;;;16.13;8.23;;;;;;;;;;5047442;28;20024;-84
2021/04/28 08:55:12;;;;;;;16.52;8.18;;;;;;;;;;5042964;28;20436;-84
2021/04/28 08:57:38;;;;;;;22.15;8.27;;;;;;;;;;5050796;28;20052;-84
2021/04/28 09:00:06;;;;;;;18.10;8.95;;;;;;;;;;5071913;28;20484;-82
2021/04/28 09:02:32;;;;;;;22.17;8.52;;;;;;;;;;5055129;28;20375;-82
2021/04/28 09:05:10;;;;;;;16.58;7.93;;;;;;;;;;5049431;28;20383;-82
2021/04/28 09:07:36;;;;;;;17.85;7.93;;;;;;;;;;5071992;28;21020;-82
2021/04/28 09:10:32;;;;;;;15.98;7.65;;;;;;;;;;5044428;28;20025;-82
2021/04/28 09:12:59;;;;;;;14.93;7.43;;;;;;;;;;5046789;28;20044;-82
2021/04/28 09:15:39;;;;;;;17.08;7.18;;;;;;;;;;5039488;28;20476;-82
2021/04/28 09:18:06;;;;;;;13.30;7.63;;;;;;;;;;5055926;28;20365;-81
2021/04/28 09:20:37;;;;;;;15.63;8.00;;;;;;;;;;5056670;28;20021;-82
2021/04/28 09:23:16;;;;;;;18.63;8.23;;;;;;;;;;5042063;28;20029;-82
2021/04/28 09:25:49;;;;;;;15.93;7.80;;;;;;;;;;5076846;28;20415;-82
2021/04/28 09:28:21;;;;;;;19.13;8.05;;;;;;;;;;5054768;28;20021;-82
2021/04/28 09:30:47;;;;;;;14.65;7.30;;;;;;;;;;5059172;28;20029;-82
2021/04/28 09:33:13;;;;;;;14.63;7.47;;;;;;;;;;5058730;28;20032;-83
2021/04/28 09:35:39;;;;;;;12.07;6.82;;;;;;;;;;5045733;28;20033;-83
2021/04/28 09:38:05;;;;;;;11.95;6.90;;;;;;;;;;5069597;28;20017;-83
2021/04/28 09:40:41;;;;;;;17.80;7.72;;;;;;;;;;5053015;28;20032;-83
2021/04/28 09:43:07;;;;;;;16.02;6.97;;;;;;;;;;5074273;28;20353;-83
2021/04/28 09:45:44;;;;;;;15.02;7.53;;;;;;;;;;5073646;28;20069;-83
2021/04/28 09:48:11;;;;;;;15.25;7.07;;;;;;;;;;5047221;28;20078;-82
2021/04/28 09:50:38;;;;;;;13.10;7.85;;;;;;;;;;5053106;28;20357;-82
2021/04/28 09:53:04;;;;;;;14.65;7.45;;;;;;;;;;5051403;28;20020;-82
2021/04/28 09:55:31;;;;;;;14.25;7.45;;;;;;;;;;5059593;28;20520;-83
2021/04/28 09:57:57;;;;;;;14.73;7.70;;;;;;;;;;5072707;28;20013;-82
2021/04/28 10:00:28;;;;;;;15.38;7.78;;;;;;;;;;5057892;28;20064;-82
2021/04/28 10:02:55;;;;;;;17.27;8.52;;;;;;;;;;5059408;28;20021;-82
2021/04/28 10:05:26;;;;;;;16.23;8.43;;;;;;;;;;5058866;28;20016;-82
2021/04/28 10:07:53;;;;;;;16.27;9.05;;;;;;;;;;5051556;28;20056;-82
2021/04/28 10:10:20;;;;;;;16.80;9.30;;;;;;;;;;5054664;28;20025;-82
2021/04/28 10:12:46;;;;;;;15.82;8.68;;;;;;;;;;5055396;28;20037;-82
2021/04/28 10:15:13;;;;;;;16.52;8.93;;;;;;;;;;5063481;28;20055;-82
2021/04/28 10:17:39;;;;;;;18.25;8.35;;;;;;;;;;5075865;28;20032;-82
2021/04/28 10:20:07;;;;;;;19.75;9.02;;;;;;;;;;5058482;28;20037;-82
2021/04/28 10:22:33;;;;;;;19.13;9.20;;;;;;;;;;5058686;28;20126;-82
2021/04/28 10:24:59;;;;;;;16.27;8.23;;;;;;;;;;5070225;28;20028;-82
2021/04/28 10:27:27;;;;;;;16.20;8.82;;;;;;;;;;5058780;28;20105;-82
2021/04/28 10:29:53;;;;;;;15.30;8.10;;;;;;;;;;5078396;28;20032;-83
2021/04/28 10:32:20;;;;;;;14.70;8.88;;;;;;;;;;5058600;28;20028;-83
2021/04/28 10:35:08;;;;;;;18.48;8.98;;;;;;;;;;5061503;28;20059;-82
2021/04/28 10:37:36;;;;;;;16.55;8.85;;;;;;;;;;5060576;28;20082;-82
2021/04/28 10:40:03;;;;;;;22.52;9.93;;;;;;;;;;5054004;28;20036;-82
2021/04/28 10:42:35;;;;;;;19.90;9.27;;;;;;;;;;5059559;28;20062;-82
2021/04/28 10:45:02;;;;;;;16.08;9.02;;;;;;;;;;5056307;28;20017;-82
2021/04/28 10:47:36;;;;;;;14.93;8.15;;;;;;;;;;5058560;28;20037;-82
2021/04/28 10:50:15;;;;;;;16.92;8.07;;;;;;;;;;5050049;28;20481;-83
2021/04/28 10:53:00;;;;;;;17.20;9.18;;;;;;;;;;5054477;28;20028;-83
2021/04/28 10:55:37;;;;;;;15.02;8.13;;;;;;;;;;5054591;28;20488;-83
2021/04/28 10:58:03;;;;;;;11.38;6.80;;;;;;;;;;5061376;28;20037;-83
2021/04/28 11:00:29;;;;;;;13.68;7.75;;;;;;;;;;5077946;28;20039;-83
2021/04/28 11:02:55;;;;;;;16.00;8.55;;;;;;;;;;5057249;28;20053;-83
2021/04/28 11:05:28;;;;;;;14.45;8.70;;;;;;;;;;5059037;28;20384;-83
2021/04/28 11:07:58;;;;;;;16.33;8.82;;;;;;;;;;5055395;28;20049;-83
2021/04/28 11:10:35;;;;;;;14.07;8.45;;;;;;;;;;5064729;28;20066;-83
2021/04/28 11:13:05;;;;;;;14.90;7.75;;;;;;;;;;5059467;28;20143;-83
2021/04/28 11:15:47;;;;;;;11.13;6.40;;;;;;;;;;5058685;28;20036;-82
2021/04/28 11:18:31;;;;;;;11.95;6.53;;;;;;;;;;5068695;28;20037;-82
2021/04/28 11:21:16;;;;;;;9.57;6.22;;;;;;;;;;5080885;28;20024;-83
2021/04/28 11:24:01;;;;;;;10.20;6.55;;;;;;;;;;5052680;28;20096;-84
2021/04/28 11:26:30;;;;;;;12.73;6.43;;;;;;;;;;5054149;28;20533;-84
2021/04/28 11:28:57;;;;;;;11.63;6.75;;;;;;;;;;5050198;28;20017;-84
2021/04/28 11:31:42;;;;;;;12.27;6.70;;;;;;;;;;5055769;28;20032;-83
2021/04/28 11:34:26;;;;;;;11.07;6.22;;;;;;;;;;5052700;28;20074;-83
2021/04/28 11:36:53;;;;;;;13.90;7.43;;;;;;;;;;5051531;28;20028;-83
2021/04/28 11:39:36;;;;;;;13.80;7.50;;;;;;;;;;5077032;28;20070;-83
2021/04/28 11:42:08;;;;;;;11.38;6.85;;;;;;;;;;5046619;28;20108;-83
2021/04/28 11:44:35;;;;;;;14.13;7.43;;;;;;;;;;5057611;28;20016;-83
2021/04/28 11:47:12;;;;;;;16.08;8.10;;;;;;;;;;5051606;28;20034;-83
2021/04/28 11:49:49;;;;;;;12.50;7.28;;;;;;;;;;5056150;28;20074;-83
2021/04/28 11:52:16;;;;;;;11.82;6.70;;;;;;;;;;5061824;28;20119;-83
2021/04/28 11:54:42;;;;;;;13.25;7.43;;;;;;;;;;5081325;28;20112;-83
2021/04/28 11:57:08;;;;;;;13.85;7.20;;;;;;;;;;5057518;28;20056;-83
2021/04/28 11:59:36;;;;;;;13.00;5.80;;;;;;;;;;5068494;28;20459;-82
2021/04/28 12:02:10;;;;;;;11.25;6.22;;;;;;;;;;5051380;28;20020;-83
2021/04/28 12:04:37;;;;;;;13.27;6.70;;;;;;;;;;5050740;28;20021;-83
2021/04/28 12:07:04;;;;;;;13.88;5.93;;;;;;;;;;5055944;28;20049;-83
2021/04/28 12:09:41;;;;;;;11.35;6.13;;;;;;;;;;5053032;28;20119;-83
2021/04/28 12:12:16;;;;;;;11.18;6.13;;;;;;;;;;5073766;28;20440;-83
2021/04/28 12:14:45;;;;;;;11.48;6.57;;;;;;;;;;5072646;28;20581;-83
2021/04/28 12:17:11;;;;;;;10.40;6.47;;;;;;;;;;5069251;28;20115;-83
2021/04/28 12:19:37;;;;;;;11.10;5.53;;;;;;;;;;5048094;28;20112;-83
2021/04/28 12:22:07;;;;;;;11.07;5.85;;;;;;;;;;5074798;28;20024;-83
2021/04/28 12:24:47;;;;;;;12.88;6.22;;;;;;;;;;5043500;28;20025;-83
2021/04/28 12:27:20;;;;;;;8.88;5.15;;;;;;;;;;5070245;28;20024;-83
2021/04/28 12:29:47;;;;;;;7.93;4.65;;;;;;;;;;5070277;28;20023;-83
2021/04/28 12:32:14;;;;;;;8.05;4.05;;;;;;;;;;5067453;28;20036;-83
2021/04/28 12:34:41;;;;;;;10.48;4.18;;;;;;;;;;5052757;28;20055;-82
2021/04/28 12:37:16;;;;;;;6.82;3.72;;;;;;;;;;5051496;28;20032;-83
2021/04/28 12:39:47;;;;;;;10.95;3.35;;;;;;;;;;5049200;28;20487;-82
2021/04/28 12:42:13;;;;;;;6.45;3.53;;;;;;;;;;5061025;28;20048;-83
2021/04/28 12:44:39;;;;;;;7.70;4.60;;;;;;;;;;5054894;28;20539;-83
2021/04/28 12:47:05;;;;;;;10.25;4.32;;;;;;;;;;5054378;28;20104;-83
2021/04/28 12:49:31;;;;;;;10.98;4.20;;;;;;;;;;5054477;28;20119;-82
2021/04/28 12:52:00;;;;;;;9.15;5.22;;;;;;;;;;5065523;28;20029;-83
2021/04/28 12:54:33;;;;;;;8.77;5.13;;;;;;;;;;5062834;28;20041;-83
2021/04/28 12:57:16;;;;;;;7.93;4.70;;;;;;;;;;5055040;28;20158;-82
2021/04/28 12:59:44;;;;;;;8.02;5.10;;;;;;;;;;5059815;28;20028;-82
2021/04/28 13:02:16;;;;;;;9.35;4.50;;;;;;;;;;5048687;28;20043;-83
2021/04/28 13:04:47;;;;;;;6.15;3.95;;;;;;;;;;5048490;28;20111;-83
2021/04/28 13:07:17;;;;;;;10.77;4.25;;;;;;;;;;5053754;28;20044;-83
2021/04/28 13:09:44;;;;;;;7.80;4.65;;;;;;;;;;5053297;28;20375;-83
2021/04/28 13:12:29;;;;;;;7.03;4.13;;;;;;;;;;5059710;28;20476;-83
2021/04/28 13:14:55;;;;;;;6.32;4.28;;;;;;;;;;5048343;28;20432;-83
2021/04/28 13:17:21;;;;;;;7.07;3.75;;;;;;;;;;5047886;28;20031;-83
2021/04/28 13:19:47;;;;;;;7.05;3.53;;;;;;;;;;5045364;28;20017;-82
2021/04/28 13:22:18;;;;;;;11.27;4.00;;;;;;;;;;5049248;28;20361;-83
2021/04/28 13:24:48;;;;;;;6.53;3.28;;;;;;;;;;5043382;28;20111;-82
2021/04/28 13:27:16;;;;;;;8.32;3.47;;;;;;;;;;5069926;28;20086;-83
2021/04/28 13:30:02;;;;;;;5.43;3.45;;;;;;;;;;5068398;28;20028;-83
2021/04/28 13:32:31;;;;;;;7.57;4.15;;;;;;;;;;5045213;28;20031;-83
2021/04/28 13:35:09;;;;;;;7.75;4.38;;;;;;;;;;5066582;28;20024;-84
2021/04/28 13:37:36;;;;;;;9.57;4.28;;;;;;;;;;5050206;28;20123;-83
2021/04/28 13:40:12;;;;;;;8.20;3.72;;;;;;;;;;5053911;28;20048;-83
2021/04/28 13:42:38;;;;;;;7.88;3.45;;;;;;;;;;5051322;28;20361;-84
2021/04/28 13:45:04;;;;;;;8.00;3.90;;;;;;;;;;5052683;28;20023;-83
2021/04/28 13:47:30;;;;;;;7.05;3.97;;;;;;;;;;5048174;28;20029;-83
2021/04/28 13:49:56;;;;;;;8.45;3.70;;;;;;;;;;5062576;28;20028;-83
2021/04/28 13:52:22;;;;;;;6.32;4.05;;;;;;;;;;5049712;28;20025;-83
2021/04/28 13:54:48;;;;;;;6.50;3.45;;;;;;;;;;5057856;28;20035;-83
2021/04/28 13:57:14;;;;;;;9.40;3.67;;;;;;;;;;5052880;28;20460;-83
2021/04/28 13:59:40;;;;;;;3.90;2.33;;;;;;;;;;5049496;28;20029;-83
2021/04/28 14:02:06;;;;;;;4.97;2.72;;;;;;;;;;5051706;28;20025;-83
2021/04/28 14:04:32;;;;;;;5.30;3.05;;;;;;;;;;5044615;28;20020;-83
2021/04/28 14:07:01;;;;;;;7.15;3.20;;;;;;;;;;5047718;28;20078;-83
2021/04/28 14:09:27;;;;;;;4.20;3.05;;;;;;;;;;5045520;28;20489;-83
2021/04/28 14:11:53;;;;;;;9.32;3.50;;;;;;;;;;5048331;28;20028;-83
2021/04/28 14:14:19;;;;;;;7.55;3.35;;;;;;;;;;5043677;28;20115;-83
2021/04/28 14:16:45;;;;;;;6.93;3.00;;;;;;;;;;5051845;28;20074;-82
2021/04/28 14:19:11;;;;;;;5.10;2.70;;;;;;;;;;5060928;28;20124;-82
2021/04/28 14:21:37;;;;;;;5.57;3.22;;;;;;;;;;5044909;28;20107;-82
2021/04/28 14:24:03;;;;;;;6.30;3.50;;;;;;;;;;5067576;28;20052;-82
2021/04/28 14:26:29;;;;;;;5.55;3.03;;;;;;;;;;5048903;28;20063;-82
2021/04/28 14:28:55;;;;;;;5.43;2.95;;;;;;;;;;5046337;28;20048;-83
2021/04/28 14:31:21;;;;;;;48.58;5.97;;;;;;;;;;5062884;28;20071;-82
2021/04/28 14:33:47;;;;;;;7.78;3.55;;;;;;;;;;5053995;28;20029;-82
2021/04/28 14:36:14;;;;;;;4.85;2.65;;;;;;;;;;5065536;28;21493;-82